createdAt,value
2022-08-05T00:01:20.896Z,24.39
2022-08-05T00:04:34.404Z,24.26
2022-08-05T00:08:00.047Z,24.09
2022-08-05T00:11:20.245Z,23.99
2022-08-05T00:14:34.163Z,23.89
2022-08-05T00:17:56.783Z,24.00
2022-08-05T00:21:19.487Z,24.01
2022-08-05T00:24:30.609Z,24.00
2022-08-05T00:27:52.778Z,23.82
2022-08-05T00:31:04.305Z,23.99
2022-08-05T00:34:56.128Z,23.73
2022-08-05T00:37:51.222Z,23.95
2022-08-05T00:41:13.428Z,23.67
2022-08-05T00:44:18.150Z,23.65
2022-08-05T00:47:25.488Z,23.60
2022-08-05T00:50:28.921Z,23.47
2022-08-05T00:54:01.139Z,23.48
2022-08-05T00:56:55.621Z,23.43
2022-08-05T00:59:59.024Z,23.32
2022-08-05T01:03:03.673Z,23.42
2022-08-05T01:06:15.320Z,23.37
2022-08-05T01:09:20.253Z,23.34
2022-08-05T01:12:29.784Z,23.25
2022-08-05T01:15:41.036Z,23.19
2022-08-05T01:18:56.562Z,23.24
2022-08-05T01:22:15.360Z,23.21
2022-08-05T01:25:53.132Z,23.11
2022-08-05T01:29:05.418Z,23.09
2022-08-05T01:32:18.705Z,23.24
2022-08-05T01:35:52.080Z,23.14
2022-08-05T01:38:51.703Z,23.15
2022-08-05T01:41:56.957Z,23.09
2022-08-05T01:45:03.209Z,22.99
2022-08-05T01:48:10.222Z,22.85
2022-08-05T01:51:16.125Z,22.78
2022-08-05T01:54:23.652Z,22.76
2022-08-05T01:58:10.129Z,22.73
2022-08-05T02:01:01.237Z,22.72
2022-08-05T02:04:06.412Z,22.76
2022-08-05T02:07:10.021Z,22.68
2022-08-05T02:10:17.441Z,22.64
2022-08-05T02:13:28.704Z,22.65
2022-08-05T02:16:55.681Z,22.74
2022-08-05T02:20:03.326Z,22.70
2022-08-05T02:23:12.030Z,22.63
2022-08-05T02:26:23.235Z,22.40
2022-08-05T02:29:58.749Z,22.34
2022-08-05T02:32:59.862Z,22.36
2022-08-05T02:36:06.229Z,22.30
2022-08-05T02:39:16.759Z,22.13
2022-08-05T02:42:27.349Z,22.15
2022-08-05T02:45:51.423Z,22.17
2022-08-05T02:48:58.790Z,22.16
2022-08-05T02:52:04.804Z,22.13
2022-08-05T02:55:12.233Z,22.00
2022-08-05T02:58:17.064Z,21.91
2022-08-05T03:01:27.053Z,21.78
2022-08-05T03:04:32.721Z,21.74
2022-08-05T03:08:00.192Z,21.96
2022-08-05T03:11:56.702Z,22.04
2022-08-05T03:14:24.631Z,22.33
2022-08-05T03:17:29.873Z,22.52
2022-08-05T03:20:34.841Z,22.48
2022-08-05T03:23:40.538Z,22.57
2022-08-05T03:26:45.706Z,23.18
2022-08-05T03:30:07.296Z,23.52
2022-08-05T03:34:41.628Z,23.53
2022-08-05T03:37:46.903Z,23.43
2022-08-05T03:40:50.441Z,23.18
2022-08-05T03:44:08.201Z,22.83
2022-08-05T03:47:14.806Z,22.77
2022-08-05T03:50:21.403Z,22.72
2022-08-05T03:55:51.847Z,22.73
2022-08-05T03:56:58.922Z,22.75
2022-08-05T04:00:08.089Z,22.59
2022-08-05T04:03:26.741Z,22.59
2022-08-05T04:06:34.836Z,22.78
2022-08-05T04:09:39.678Z,22.89
2022-08-05T04:12:58.780Z,22.79
2022-08-05T04:16:04.750Z,22.79
2022-08-05T04:19:12.049Z,22.83
2022-08-05T04:22:21.230Z,22.70
2022-08-05T04:25:56.491Z,22.61
2022-08-05T04:28:51.185Z,22.85
2022-08-05T04:31:56.832Z,22.80
2022-08-05T04:35:00.371Z,23.04
2022-08-05T04:38:06.861Z,23.09
2022-08-05T04:41:10.416Z,23.20
2022-08-05T04:44:13.874Z,23.30
2022-08-05T04:47:20.048Z,23.28
2022-08-05T04:50:37.140Z,23.42
2022-08-05T04:53:49.155Z,23.50
2022-08-05T04:56:55.298Z,23.38
2022-08-05T05:00:02.199Z,23.33
2022-08-05T05:03:06.818Z,23.46
2022-08-05T05:06:36.507Z,23.48
2022-08-05T05:09:37.320Z,23.40
2022-08-05T05:12:41.477Z,23.45
2022-08-05T05:15:57.004Z,23.54
2022-08-05T05:19:18.570Z,23.70
2022-08-05T05:22:26.482Z,23.63
2022-08-05T05:25:32.580Z,23.69
2022-08-05T05:28:45.056Z,23.51
2022-08-05T05:31:48.783Z,23.69
2022-08-05T05:34:54.711Z,23.78
2022-08-05T05:38:02.203Z,23.89
2022-08-05T05:41:07.615Z,23.97
2022-08-05T05:44:36.007Z,24.00
2022-08-05T05:48:06.886Z,24.17
2022-08-05T05:51:20.561Z,24.37
2022-08-05T05:54:49.750Z,24.46
2022-08-05T05:57:52.326Z,24.79
2022-08-05T06:00:56.374Z,25.18
2022-08-05T06:04:03.553Z,25.37
2022-08-05T06:07:07.426Z,25.72
2022-08-05T06:10:14.541Z,26.56
2022-08-05T06:13:20.423Z,27.35
2022-08-05T06:16:29.541Z,26.69
2022-08-05T06:19:35.858Z,26.42
2022-08-05T06:22:40.544Z,26.10
2022-08-05T06:26:12.356Z,25.68
2022-08-05T06:29:25.126Z,25.62
2022-08-05T06:32:34.643Z,25.56
2022-08-05T06:36:07.601Z,25.28
2022-08-05T06:39:02.378Z,25.20
2022-08-05T06:42:07.377Z,25.11
2022-08-05T06:45:21.226Z,24.93
2022-08-05T06:48:47.335Z,24.83
2022-08-05T06:51:48.443Z,24.66
2022-08-05T06:54:52.171Z,24.78
2022-08-05T06:58:20.411Z,24.89
2022-08-05T07:01:21.936Z,26.02
2022-08-05T07:04:26.422Z,26.14
2022-08-05T07:07:35.544Z,26.78
2022-08-05T07:10:53.393Z,26.30
2022-08-05T07:14:20.106Z,27.33
2022-08-05T07:17:59.397Z,27.88
2022-08-05T07:20:48.902Z,27.96
2022-08-05T07:23:53.494Z,27.78
2022-08-05T07:26:56.993Z,28.39
2022-08-05T07:30:22.053Z,28.76
2022-08-05T07:33:35.115Z,29.36
2022-08-05T07:36:41.124Z,29.33
2022-08-05T07:40:26.950Z,28.13
2022-08-05T07:43:20.217Z,28.38
2022-08-05T07:46:26.266Z,27.58
2022-08-05T07:49:31.563Z,28.70
2022-08-05T07:52:54.989Z,28.69
2022-08-05T07:56:06.540Z,29.06
2022-08-05T07:59:31.376Z,29.11
2022-08-05T08:03:14.141Z,28.88
2022-08-05T08:06:09.332Z,29.38
2022-08-05T08:09:14.864Z,29.22
2022-08-05T08:12:36.993Z,28.95
2022-08-05T08:16:49.709Z,29.90
2022-08-05T08:19:05.918Z,29.98
2022-08-05T08:22:15.906Z,29.33
2022-08-05T08:25:27.012Z,29.36
2022-08-05T08:28:55.053Z,29.17
2022-08-05T08:32:02.985Z,30.13
2022-08-05T08:35:13.511Z,30.34
2022-08-05T08:38:18.480Z,29.74
2022-08-05T08:41:52.326Z,29.90
2022-08-05T08:45:22.191Z,29.93
2022-08-05T08:49:03.078Z,29.59
2022-08-05T08:52:03.671Z,30.35
2022-08-05T08:55:13.433Z,30.76
2022-08-05T08:58:17.767Z,30.90
2022-08-05T09:01:21.570Z,30.15
2022-08-05T09:04:30.522Z,29.56
2022-08-05T09:07:39.504Z,29.98
2022-08-05T09:10:46.816Z,29.73
2022-08-05T09:14:09.683Z,29.58
2022-08-05T09:17:39.913Z,29.77
2022-08-05T09:20:38.377Z,29.00
2022-08-05T09:23:43.766Z,29.97
2022-08-05T09:26:56.234Z,30.88
2022-08-05T09:30:06.458Z,30.43
2022-08-05T09:34:55.774Z,30.51
2022-08-05T09:38:16.935Z,30.90
2022-08-05T09:41:22.468Z,31.01
2022-08-05T09:44:36.626Z,30.77
2022-08-05T09:47:55.070Z,31.14
2022-08-05T09:51:02.781Z,31.39
2022-08-05T09:54:09.467Z,31.22
2022-08-05T09:57:29.958Z,30.73
2022-08-05T10:00:39.250Z,31.10
2022-08-05T10:03:59.345Z,31.57
2022-08-05T10:07:20.389Z,31.32
2022-08-05T10:10:33.466Z,31.58
2022-08-05T10:13:47.546Z,31.96
2022-08-05T10:16:56.363Z,31.62
2022-08-05T10:20:04.042Z,31.73
2022-08-05T10:23:34.743Z,31.95
2022-08-05T10:26:46.677Z,31.99
2022-08-05T10:30:06.652Z,32.70
2022-08-05T10:33:19.651Z,32.12
2022-08-05T10:36:26.083Z,32.42
2022-08-05T10:40:03.235Z,32.28
2022-08-05T10:43:12.423Z,32.16
2022-08-05T10:46:17.407Z,32.11
2022-08-05T10:49:27.506Z,32.81
2022-08-05T10:52:49.516Z,32.44
2022-08-05T10:56:21.024Z,32.63
2022-08-05T11:00:03.740Z,32.84
2022-08-05T11:03:23.424Z,32.12
2022-08-05T11:06:30.730Z,32.74
2022-08-05T11:09:46.263Z,32.73
2022-08-05T11:12:55.277Z,32.43
2022-08-05T11:16:23.252Z,32.86
2022-08-05T11:20:11.182Z,32.90
2022-08-05T11:23:33.320Z,32.96
2022-08-05T11:27:26.462Z,32.98
2022-08-05T11:31:54.275Z,33.08
2022-08-05T11:34:47.564Z,32.90
2022-08-05T11:38:30.692Z,33.34
2022-08-05T11:41:58.205Z,33.33
2022-08-05T11:44:55.978Z,33.38
2022-08-05T11:48:14.665Z,32.77
2022-08-05T11:51:44.207Z,32.78
2022-08-05T11:54:56.434Z,32.47
2022-08-05T11:58:10.028Z,33.49
2022-08-05T12:01:24.139Z,32.53
2022-08-05T12:04:41.288Z,32.59
2022-08-05T12:08:03.142Z,33.07
2022-08-05T12:11:17.226Z,33.01
2022-08-05T12:14:26.157Z,32.80
2022-08-05T12:18:04.425Z,32.38
2022-08-05T12:21:12.878Z,32.69
2022-08-05T12:24:22.120Z,33.46
2022-08-05T12:27:32.845Z,33.36
2022-08-05T12:30:45.962Z,34.08
2022-08-05T12:33:50.205Z,33.55
2022-08-05T12:36:54.945Z,33.29
2022-08-05T12:40:03.181Z,32.58
2022-08-05T12:43:08.418Z,33.55
2022-08-05T12:46:26.429Z,32.92
2022-08-05T12:50:04.070Z,33.24
2022-08-05T12:53:08.338Z,33.44
2022-08-05T12:56:33.987Z,33.35
2022-08-05T13:01:58.539Z,34.00
2022-08-05T13:03:12.334Z,33.54
2022-08-05T13:06:19.784Z,33.58
2022-08-05T13:09:27.926Z,33.60
2022-08-05T13:12:33.381Z,33.36
2022-08-05T13:15:52.126Z,33.06
2022-08-05T13:18:57.773Z,33.33
2022-08-05T13:22:02.298Z,33.43
2022-08-05T13:25:18.824Z,33.11
2022-08-05T13:28:24.357Z,33.40
2022-08-05T13:31:33.723Z,33.51
2022-08-05T13:34:53.137Z,33.72
2022-08-05T13:37:56.515Z,33.44
2022-08-05T13:41:08.484Z,33.73
2022-08-05T13:44:13.248Z,32.97
2022-08-05T13:47:35.982Z,32.94
2022-08-05T13:50:41.228Z,33.13
2022-08-05T13:53:48.505Z,32.99
2022-08-05T13:56:52.209Z,32.84
2022-08-05T13:59:59.483Z,33.39
2022-08-05T14:03:12.496Z,34.02
2022-08-05T14:06:25.659Z,33.92
2022-08-05T14:09:30.374Z,33.02
2022-08-05T14:12:34.382Z,32.93
2022-08-05T14:16:07.314Z,33.81
2022-08-05T14:19:04.392Z,33.76
2022-08-05T14:22:12.156Z,34.19
2022-08-05T14:25:21.499Z,33.87
2022-08-05T14:28:26.740Z,33.97
2022-08-05T14:32:03.296Z,34.19
2022-08-05T14:34:56.784Z,33.89
2022-08-05T14:38:01.086Z,34.01
2022-08-05T14:41:07.421Z,34.60
2022-08-05T14:44:20.574Z,33.96
2022-08-05T14:48:03.916Z,33.99
2022-08-05T14:50:50.046Z,33.30
2022-08-05T14:54:26.164Z,32.92
2022-08-05T14:57:16.999Z,33.31
2022-08-05T15:00:21.483Z,33.68
2022-08-05T15:03:39.144Z,34.01
2022-08-05T15:06:49.592Z,33.74
2022-08-05T15:09:54.193Z,33.69
2022-08-05T15:13:04.189Z,33.77
2022-08-05T15:16:08.043Z,32.97
2022-08-05T15:19:23.817Z,32.70
2022-08-05T15:22:28.116Z,32.33
2022-08-05T15:25:51.205Z,32.11
2022-08-05T15:28:55.519Z,32.16
2022-08-05T15:34:40.929Z,32.45
2022-08-05T15:38:33.876Z,32.32
2022-08-05T15:41:23.358Z,32.42
2022-08-05T15:44:28.048Z,32.08
2022-08-05T15:47:35.710Z,31.88
2022-08-05T15:50:40.790Z,31.84
2022-08-05T15:53:50.279Z,31.65
2022-08-05T15:56:55.330Z,31.68
2022-08-05T15:59:59.069Z,31.61
2022-08-05T16:03:08.285Z,31.52
2022-08-05T16:06:13.407Z,30.72
2022-08-05T16:09:16.802Z,31.42
2022-08-05T16:12:25.747Z,31.16
2022-08-05T16:15:32.610Z,30.90
2022-08-05T16:18:52.692Z,30.79
2022-08-05T16:21:58.960Z,30.83
2022-08-05T16:25:05.278Z,30.82
2022-08-05T16:28:15.602Z,30.66
2022-08-05T16:31:19.311Z,30.94
2022-08-05T16:34:25.812Z,30.80
2022-08-05T16:38:11.960Z,30.36
2022-08-05T16:41:02.490Z,29.94
2022-08-05T16:44:26.180Z,30.18
2022-08-05T16:47:36.223Z,30.19
2022-08-05T16:50:52.442Z,29.72
2022-08-05T16:54:04.808Z,29.40
2022-08-05T16:57:15.053Z,29.30
2022-08-05T17:00:34.890Z,29.08
2022-08-05T17:03:41.418Z,28.87
2022-08-05T17:06:44.944Z,28.91
2022-08-05T17:09:59.278Z,28.64
2022-08-05T17:13:03.052Z,28.62
2022-08-05T17:16:27.963Z,28.74
2022-08-05T17:19:31.003Z,28.43
2022-08-05T17:22:34.621Z,28.47
2022-08-05T17:25:42.278Z,28.45
2022-08-05T17:28:47.187Z,28.40
2022-08-05T17:31:58.509Z,28.51
2022-08-05T17:35:02.754Z,28.23
2022-08-05T17:38:08.838Z,28.27
2022-08-05T17:42:18.519Z,28.26
2022-08-05T17:44:37.501Z,28.34
2022-08-05T17:47:41.179Z,28.21
2022-08-05T17:50:44.939Z,28.20
2022-08-05T17:53:50.780Z,27.99
2022-08-05T17:57:02.646Z,28.15
2022-08-05T18:00:07.519Z,27.97
2022-08-05T18:03:11.121Z,28.01
2022-08-05T18:06:15.509Z,27.84
2022-08-05T18:09:19.292Z,27.67
2022-08-05T18:12:24.732Z,27.70
2022-08-05T18:15:34.242Z,27.72
2022-08-05T18:18:39.664Z,27.56
2022-08-05T18:22:08.806Z,27.49
2022-08-05T18:25:08.121Z,27.41
2022-08-05T18:28:16.071Z,27.23
2022-08-05T18:31:19.906Z,27.10
2022-08-05T18:34:23.177Z,27.04
2022-08-05T18:37:43.097Z,26.96
2022-08-05T18:41:54.955Z,26.54
2022-08-05T18:44:11.306Z,26.93
2022-08-05T18:47:16.599Z,26.68
2022-08-05T18:50:44.829Z,26.83
2022-08-05T18:53:50.771Z,26.49
2022-08-05T18:56:54.127Z,26.47
2022-08-05T19:00:04.108Z,26.42
2022-08-05T19:03:15.197Z,26.40
2022-08-05T19:06:22.034Z,26.40
2022-08-05T19:09:39.059Z,26.38
2022-08-05T19:12:46.275Z,26.40
2022-08-05T19:15:58.260Z,26.20
2022-08-05T19:19:04.233Z,26.26
2022-08-05T19:22:08.275Z,26.22
2022-08-05T19:25:21.536Z,26.14
2022-08-05T19:28:33.757Z,26.03
2022-08-05T19:31:44.825Z,26.06
2022-08-05T19:34:55.871Z,25.85
2022-08-05T19:38:06.523Z,25.86
2022-08-05T19:41:12.255Z,25.68
2022-08-05T19:44:16.450Z,25.49
2022-08-05T19:47:21.958Z,25.30
2022-08-05T19:50:26.841Z,25.35
2022-08-05T19:54:05.347Z,25.05
2022-08-05T19:56:54.808Z,24.99
2022-08-05T20:00:01.711Z,24.86
2022-08-05T20:03:16.314Z,24.78
2022-08-05T20:06:28.633Z,24.64
2022-08-05T20:09:54.687Z,24.35
2022-08-05T20:12:56.011Z,24.30
2022-08-05T20:15:59.820Z,24.29
2022-08-05T20:19:04.993Z,23.72
2022-08-05T20:22:09.553Z,23.73
2022-08-05T20:25:13.141Z,23.78
2022-08-05T20:28:16.946Z,23.67
2022-08-05T20:31:21.727Z,23.47
2022-08-05T20:34:27.959Z,23.35
2022-08-05T20:38:06.274Z,23.46
2022-08-05T20:40:55.499Z,23.20
2022-08-05T20:44:17.435Z,22.98
2022-08-05T20:47:21.411Z,22.98
2022-08-05T20:50:40.913Z,22.92
2022-08-05T20:53:55.080Z,22.88
2022-08-05T20:56:59.885Z,22.45
2022-08-05T21:00:20.722Z,22.66
2022-08-05T21:03:34.209Z,22.53
2022-08-05T21:06:45.632Z,22.38
2022-08-05T21:09:53.778Z,21.79
2022-08-05T21:13:11.251Z,20.79
2022-08-05T21:16:18.250Z,20.29
2022-08-05T21:19:23.461Z,20.22
2022-08-05T21:22:28.649Z,20.16
2022-08-05T21:25:34.064Z,19.98
2022-08-05T21:28:37.585Z,20.19
2022-08-05T21:34:40.967Z,19.91
2022-08-05T21:37:53.052Z,19.84
2022-08-05T21:40:58.273Z,19.78
2022-08-05T21:44:04.437Z,19.71
2022-08-05T21:47:32.828Z,19.38
2022-08-05T21:50:33.789Z,19.42
2022-08-05T21:53:40.115Z,19.35
2022-08-05T21:56:44.612Z,19.26
2022-08-05T22:00:06.041Z,19.17
2022-08-05T22:03:15.862Z,18.93
2022-08-05T22:06:35.139Z,18.78
2022-08-05T22:09:46.401Z,18.55
2022-08-05T22:12:51.886Z,18.40
2022-08-05T22:16:02.431Z,18.66
2022-08-05T22:19:57.299Z,18.58
2022-08-05T22:22:56.706Z,18.46
2022-08-05T22:26:18.862Z,18.53
2022-08-05T22:29:26.145Z,18.47
2022-08-05T22:32:30.439Z,18.47
2022-08-05T22:35:48.055Z,18.31
2022-08-05T22:38:53.968Z,18.36
2022-08-05T22:42:11.315Z,17.86
2022-08-05T22:45:16.705Z,18.18
2022-08-05T22:48:22.209Z,18.30
2022-08-05T22:52:04.937Z,17.84
2022-08-05T22:54:55.577Z,18.19
2022-08-05T22:57:59.413Z,18.30
2022-08-05T23:01:02.842Z,18.39
2022-08-05T23:04:10.052Z,18.56
2022-08-05T23:07:13.645Z,18.50
2022-08-05T23:10:23.626Z,18.59
2022-08-05T23:13:27.056Z,18.64
2022-08-05T23:16:52.139Z,18.69
2022-08-05T23:19:57.930Z,18.49
2022-08-05T23:23:05.951Z,18.44
2022-08-05T23:26:13.080Z,18.46
2022-08-05T23:29:19.446Z,17.93
2022-08-05T23:32:23.241Z,18.04
2022-08-05T23:35:34.079Z,18.32
2022-08-05T23:38:37.539Z,18.28
2022-08-05T23:41:48.802Z,18.27
2022-08-05T23:44:54.468Z,18.22
2022-08-05T23:47:59.325Z,18.20
2022-08-05T23:51:03.032Z,18.16
2022-08-05T23:54:06.336Z,18.03
2022-08-05T23:57:16.719Z,17.99
